createdAt,value
2023-10-08T00:14:32.027Z,1002.3
2023-10-08T00:29:55.322Z,1002.3
2023-10-08T00:45:18.616Z,1002.5
2023-10-08T01:00:41.910Z,1002.6
2023-10-08T01:16:05.204Z,1002.6
2023-10-08T01:31:28.499Z,1002.8
2023-10-08T01:46:51.793Z,1003
2023-10-08T02:02:14.104Z,1003.5
2023-10-08T02:17:37.398Z,1004.5
2023-10-08T02:33:00.699Z,1004.7
2023-10-08T02:48:23.995Z,1005.2
2023-10-08T03:03:47.290Z,1005.4
2023-10-08T03:19:10.586Z,1005.7
2023-10-08T03:34:33.881Z,1006
2023-10-08T03:49:57.178Z,1006.1
2023-10-08T04:05:20.477Z,1006
2023-10-08T04:20:43.775Z,1006.1
2023-10-08T04:36:07.074Z,1006.8
2023-10-08T04:51:30.372Z,1006.9
2023-10-08T05:06:53.628Z,1007.1
2023-10-08T05:22:15.899Z,1007.1
2023-10-08T05:37:39.158Z,1007.5
2023-10-08T05:53:02.414Z,1008
2023-10-08T06:08:25.669Z,1008.3
2023-10-08T06:23:48.926Z,1008.5
2023-10-08T06:39:12.187Z,1008.6
2023-10-08T06:54:35.444Z,1008.8
2023-10-08T07:09:58.701Z,1009.2
2023-10-08T07:25:21.929Z,1009.5
2023-10-08T07:40:45.215Z,1009.7
2023-10-08T07:56:08.472Z,1010.1
2023-10-08T08:11:31.729Z,1010
2023-10-08T08:26:54.993Z,1010.6
2023-10-08T08:42:17.266Z,1010.5
2023-10-08T08:57:40.525Z,1010.7
2023-10-08T09:13:03.781Z,1010.8
2023-10-08T09:28:27.039Z,1011
2023-10-08T09:43:50.295Z,1011.1
2023-10-08T09:59:13.551Z,1011.1
2023-10-08T10:14:36.806Z,1011.4
2023-10-08T10:30:00.064Z,1011.5
2023-10-08T10:45:23.318Z,1011.6
2023-10-08T11:00:46.575Z,1011.7
2023-10-08T11:16:09.830Z,1011.6
2023-10-08T11:31:33.086Z,1011.6
2023-10-08T11:46:56.341Z,1011.1
2023-10-08T12:02:18.608Z,1010.9
2023-10-08T12:17:41.862Z,1011.1
2023-10-08T12:33:05.116Z,1010.8
2023-10-08T12:34:28.524Z,1010.8
2023-10-08T12:35:51.933Z,1010.8
2023-10-08T12:37:15.342Z,1010.8
2023-10-08T12:38:37.772Z,1010.7
2023-10-08T12:40:01.180Z,1010.7
2023-10-08T12:41:24.589Z,1010.7
2023-10-08T12:42:47.984Z,1010.7
2023-10-08T12:44:11.411Z,1010.7
2023-10-08T12:45:34.820Z,1010.7
2023-10-08T12:46:58.229Z,1010.7
2023-10-08T12:48:21.636Z,1010.7
2023-10-08T12:49:45.047Z,1010.7
2023-10-08T12:51:08.456Z,1010.6
2023-10-08T12:52:31.867Z,1010.7
2023-10-08T12:53:55.273Z,1010.8
2023-10-08T12:55:18.682Z,1010.8
2023-10-08T12:56:41.107Z,1010.8
2023-10-08T12:58:04.516Z,1010.7
2023-10-08T12:59:27.924Z,1010.7
2023-10-08T13:00:51.331Z,1010.7
2023-10-08T13:02:14.738Z,1010.7
2023-10-08T13:03:38.144Z,1010.5
2023-10-08T13:05:01.553Z,1010.6
2023-10-08T13:06:24.962Z,1010.4
2023-10-08T13:07:48.343Z,1010.4
2023-10-08T13:09:11.779Z,1010.4
2023-10-08T13:10:35.188Z,1010.5
2023-10-08T13:11:58.594Z,1010.5
2023-10-08T13:13:22.001Z,1010.5
2023-10-08T13:14:44.426Z,1010.5
2023-10-08T13:16:07.836Z,1010.5
2023-10-08T13:17:31.244Z,1010.5
2023-10-08T13:18:54.653Z,1010.5
2023-10-08T13:20:18.059Z,1010.4
2023-10-08T13:21:41.468Z,1010.4
2023-10-08T13:23:04.877Z,1010.4
2023-10-08T13:24:28.286Z,1010.5
2023-10-08T13:25:51.694Z,1010.6
2023-10-08T13:27:15.101Z,1010.6
2023-10-08T13:28:38.509Z,1010.7
2023-10-08T13:30:01.918Z,1010.7
2023-10-08T13:31:25.332Z,1010.8
2023-10-08T13:32:47.754Z,1010.7
2023-10-08T13:34:11.161Z,1010.7
2023-10-08T13:35:34.575Z,1010.7
2023-10-08T13:36:57.984Z,1010.9
2023-10-08T13:38:21.392Z,1010.9
2023-10-08T13:39:44.806Z,1010.8
2023-10-08T13:41:08.215Z,1010.7
2023-10-08T13:42:31.623Z,1010.7
2023-10-08T13:43:55.032Z,1010.8
2023-10-08T13:45:18.440Z,1010.8
2023-10-08T13:46:41.847Z,1010.8
2023-10-08T13:48:05.264Z,1010.8
2023-10-08T13:49:28.670Z,1010.7
2023-10-08T13:50:51.095Z,1010.8
2023-10-08T13:52:14.503Z,1010.7
2023-10-08T13:53:37.912Z,1010.7
2023-10-08T13:55:01.329Z,1010.7
2023-10-08T13:56:24.738Z,1010.7
2023-10-08T13:57:48.144Z,1010.6
2023-10-08T13:59:11.553Z,1010.6
2023-10-08T14:00:34.962Z,1010.7
2023-10-08T14:01:58.370Z,1010.6
2023-10-08T14:03:21.779Z,1010.6
2023-10-08T14:04:45.189Z,1010.6
2023-10-08T14:06:08.598Z,1010.7
2023-10-08T14:07:32.006Z,1010.7
2023-10-08T14:08:54.429Z,1010.6
2023-10-08T14:10:17.835Z,1010.6
2023-10-08T14:11:41.244Z,1010.5
2023-10-08T14:13:04.651Z,1010.4
2023-10-08T14:14:28.059Z,1010.5
2023-10-08T14:15:51.468Z,1010.5
2023-10-08T14:17:14.877Z,1010.6
2023-10-08T14:18:38.283Z,1010.5
2023-10-08T14:20:01.692Z,1010.5
2023-10-08T14:21:25.098Z,1010.7
2023-10-08T14:22:48.478Z,1010.7
2023-10-08T14:24:11.916Z,1010.7
2023-10-08T14:25:35.329Z,1010.7
2023-10-08T14:26:57.752Z,1010.7
2023-10-08T14:28:21.168Z,1010.7
2023-10-08T14:29:44.574Z,1010.7
2023-10-08T14:31:07.983Z,1010.6
2023-10-08T14:32:31.391Z,1010.5
2023-10-08T14:33:54.798Z,1010.5
2023-10-08T14:35:18.216Z,1010.5
2023-10-08T14:36:41.625Z,1010.3
2023-10-08T14:38:05.041Z,1010.3
2023-10-08T14:39:28.447Z,1010.3
2023-10-08T14:40:51.856Z,1010.3
2023-10-08T14:42:15.273Z,1010.3
2023-10-08T14:43:38.681Z,1010.3
2023-10-08T14:45:01.105Z,1010.2
2023-10-08T14:46:24.511Z,1010.3
2023-10-08T14:47:47.916Z,1010.3
2023-10-08T14:49:11.323Z,1010.4
2023-10-08T14:50:34.731Z,1010.4
2023-10-08T14:51:58.140Z,1010.5
2023-10-08T14:53:21.550Z,1010.6
2023-10-08T14:54:44.956Z,1010.6
2023-10-08T14:56:08.365Z,1010.5
2023-10-08T14:57:31.771Z,1010.5
2023-10-08T14:58:55.180Z,1010.4
2023-10-08T15:00:18.589Z,1010.5
2023-10-08T15:01:41.997Z,1010.5
2023-10-08T15:03:04.422Z,1010.6
2023-10-08T15:04:27.830Z,1010.8
2023-10-08T15:05:51.238Z,1010.8
2023-10-08T15:07:14.646Z,1010.8
2023-10-08T15:08:38.055Z,1010.7
2023-10-08T15:10:01.461Z,1010.8
2023-10-08T15:11:24.869Z,1010.8
2023-10-08T15:12:48.279Z,1010.8
2023-10-08T15:14:11.687Z,1010.8
2023-10-08T15:15:35.093Z,1010.8
2023-10-08T15:16:58.502Z,1010.8
2023-10-08T15:18:21.911Z,1010.8
2023-10-08T15:19:45.319Z,1010.9
2023-10-08T15:21:07.744Z,1010.9
2023-10-08T15:22:31.150Z,1010.9
2023-10-08T15:23:54.559Z,1011
2023-10-08T15:25:17.968Z,1011
2023-10-08T15:26:41.376Z,1011
2023-10-08T15:28:04.782Z,1011
2023-10-08T15:29:28.191Z,1010.9
2023-10-08T15:30:51.597Z,1010.9
2023-10-08T15:32:15.006Z,1010.9
2023-10-08T15:33:38.412Z,1010.9
2023-10-08T15:35:01.820Z,1010.9
2023-10-08T15:36:25.229Z,1011
2023-10-08T15:37:48.624Z,1010.9
2023-10-08T15:39:11.070Z,1010.9
2023-10-08T15:40:34.476Z,1010.8
2023-10-08T15:41:57.886Z,1010.9
2023-10-08T15:43:21.294Z,1010.8
2023-10-08T15:44:44.700Z,1010.9
2023-10-08T15:46:08.109Z,1010.9
2023-10-08T15:47:31.515Z,1011
2023-10-08T15:48:54.924Z,1011
2023-10-08T15:50:18.330Z,1011.1
2023-10-08T15:51:41.744Z,1011.1
2023-10-08T15:53:05.153Z,1011.1
2023-10-08T15:54:28.561Z,1011.2
2023-10-08T15:55:51.967Z,1011.2
2023-10-08T15:57:14.390Z,1011.1
2023-10-08T15:58:37.794Z,1011.2
2023-10-08T16:00:01.202Z,1011.2
2023-10-08T16:01:24.611Z,1011.2
2023-10-08T16:02:48.020Z,1011.2
2023-10-08T16:04:11.428Z,1011.2
2023-10-08T16:05:34.836Z,1011.2
2023-10-08T16:06:58.245Z,1011.2
2023-10-08T16:08:21.654Z,1011.2
2023-10-08T16:09:45.060Z,1011.3
2023-10-08T16:11:08.469Z,1011.4
2023-10-08T16:12:31.875Z,1011.4
2023-10-08T16:13:55.282Z,1011.4
2023-10-08T16:15:17.704Z,1011.5
2023-10-08T16:16:41.110Z,1011.5
2023-10-08T16:18:04.519Z,1011.5
2023-10-08T16:19:27.927Z,1011.5
2023-10-08T16:20:51.336Z,1011.5
2023-10-08T16:22:14.744Z,1011.5
2023-10-08T16:23:38.150Z,1011.5
2023-10-08T16:25:01.559Z,1011.4
2023-10-08T16:26:24.968Z,1011.4
2023-10-08T16:27:48.374Z,1011.4
2023-10-08T16:29:11.782Z,1011.5
2023-10-08T16:30:35.196Z,1011.5
2023-10-08T16:31:58.602Z,1011.5
2023-10-08T16:33:21.027Z,1011.5
2023-10-08T16:34:44.433Z,1011.5
2023-10-08T16:36:07.840Z,1011.5
2023-10-08T16:37:31.249Z,1011.6
2023-10-08T16:38:54.655Z,1011.6
2023-10-08T16:40:18.064Z,1011.6
2023-10-08T16:41:41.470Z,1011.7
2023-10-08T16:43:04.877Z,1011.7
2023-10-08T16:44:28.288Z,1011.6
2023-10-08T16:45:51.694Z,1011.7
2023-10-08T16:47:15.100Z,1011.7
2023-10-08T16:48:38.509Z,1011.7
2023-10-08T16:50:01.914Z,1011.7
2023-10-08T16:51:24.335Z,1011.7
2023-10-08T16:52:47.743Z,1011.7
2023-10-08T16:54:11.191Z,1011.7
2023-10-08T16:55:34.598Z,1011.7
2023-10-08T16:56:58.004Z,1011.8
2023-10-08T16:58:21.411Z,1011.7
2023-10-08T16:59:44.858Z,1011.8
2023-10-08T17:01:08.308Z,1011.7
2023-10-08T17:02:31.758Z,1011.7
2023-10-08T17:03:55.207Z,1011.8
2023-10-08T17:05:18.660Z,1011.8
2023-10-08T17:06:42.109Z,1011.7
2023-10-08T17:08:05.559Z,1011.7
2023-10-08T17:09:28.028Z,1011.7
2023-10-08T17:10:51.477Z,1011.7
2023-10-08T17:12:14.925Z,1011.7
2023-10-08T17:13:38.375Z,1011.7
2023-10-08T17:15:01.829Z,1011.7
2023-10-08T17:16:25.278Z,1011.6
2023-10-08T17:17:47.749Z,1011.6
2023-10-08T17:19:11.198Z,1011.6
2023-10-08T17:20:34.648Z,1011.6
2023-10-08T17:21:58.080Z,1011.6
2023-10-08T17:23:21.546Z,1011.5
2023-10-08T17:24:44.996Z,1011.5
2023-10-08T17:26:08.446Z,1011.5
2023-10-08T17:27:31.896Z,1011.5
2023-10-08T17:28:55.345Z,1011.4
2023-10-08T17:30:18.793Z,1011.4
2023-10-08T17:31:42.248Z,1011.4
2023-10-08T17:33:05.698Z,1011.4
2023-10-08T17:34:29.147Z,1011.4
2023-10-08T17:35:51.613Z,1011.4
2023-10-08T17:37:15.063Z,1011.3
2023-10-08T17:38:38.512Z,1011.3
2023-10-08T17:40:01.962Z,1011.3
2023-10-08T17:41:25.411Z,1011.3
2023-10-08T17:42:48.847Z,1011.4
2023-10-08T17:44:12.309Z,1011.4
2023-10-08T17:45:35.756Z,1011.3
2023-10-08T17:46:59.208Z,1011.4
2023-10-08T17:48:22.658Z,1011.3
2023-10-08T17:49:46.110Z,1011.3
2023-10-08T17:51:09.559Z,1011.3
2023-10-08T17:52:33.009Z,1011.3
2023-10-08T17:53:55.475Z,1011.3
2023-10-08T17:55:18.924Z,1011.2
2023-10-08T17:56:42.372Z,1011.2
2023-10-08T17:58:05.822Z,1011.1
2023-10-08T17:59:29.271Z,1011
2023-10-08T18:00:52.720Z,1011
2023-10-08T18:02:16.174Z,1011
2023-10-08T18:03:39.623Z,1011.1
2023-10-08T18:05:03.073Z,1011.2
2023-10-08T18:06:26.522Z,1011.2
2023-10-08T18:07:49.970Z,1011.1
2023-10-08T18:09:13.420Z,1011
2023-10-08T18:10:36.869Z,1010.9
2023-10-08T18:11:59.335Z,1010.8
2023-10-08T18:13:22.784Z,1010.8
2023-10-08T18:14:46.236Z,1010.8
2023-10-08T18:16:09.684Z,1010.8
2023-10-08T18:17:33.133Z,1010.8
2023-10-08T18:18:56.583Z,1010.7
2023-10-08T18:20:20.033Z,1010.8
2023-10-08T18:21:43.480Z,1010.8
2023-10-08T18:23:06.930Z,1010.8
2023-10-08T18:24:30.380Z,1010.7
2023-10-08T18:39:53.679Z,1010.6
2023-10-08T18:55:16.981Z,1010
2023-10-08T19:10:40.283Z,1010.3
2023-10-08T19:26:02.597Z,1010.7
2023-10-08T19:41:25.896Z,1010.2
2023-10-08T19:56:49.172Z,1010.5
2023-10-08T20:12:12.498Z,1010.4
2023-10-08T20:27:35.797Z,1009.9
2023-10-08T20:42:59.096Z,1009.8
2023-10-08T20:58:22.395Z,1009.8
2023-10-08T21:13:45.694Z,1009.6
2023-10-08T21:29:08.992Z,1009.4
2023-10-08T21:44:32.291Z,1008.9
2023-10-08T21:59:55.589Z,1009
2023-10-08T22:15:18.887Z,1008.7
2023-10-08T22:30:42.185Z,1008.4
2023-10-08T22:46:04.499Z,1007.9
2023-10-08T23:01:27.797Z,1007.9
2023-10-08T23:16:51.095Z,1007.5
2023-10-08T23:32:14.394Z,1007.3
2023-10-08T23:47:37.692Z,1007
